sensor_id;sensor_type;location;lat;lon;timestamp;pressure;altitude;pressure_sealevel;temperature;humidity
79540;BME280;68991;52.122;5.406;2023-06-04T00:00:01;102421.47;;;21.12;57.30
79540;BME280;68991;52.122;5.406;2023-06-04T00:02:28;102417.84;;;21.12;57.14
79540;BME280;68991;52.122;5.406;2023-06-04T00:04:54;102420.69;;;21.10;57.17
79540;BME280;68991;52.122;5.406;2023-06-04T00:07:21;102419.88;;;21.08;57.28
79540;BME280;68991;52.122;5.406;2023-06-04T00:09:48;102412.78;;;21.06;57.56
79540;BME280;68991;52.122;5.406;2023-06-04T00:12:15;102421.09;;;21.04;57.43
79540;BME280;68991;52.122;5.406;2023-06-04T00:14:42;102414.75;;;21.04;57.42
79540;BME280;68991;52.122;5.406;2023-06-04T00:17:09;102414.84;;;21.02;57.09
79540;BME280;68991;52.122;5.406;2023-06-04T00:19:38;102416.69;;;21.02;57.36
79540;BME280;68991;52.122;5.406;2023-06-04T00:22:06;102413.19;;;21.00;57.08
79540;BME280;68991;52.122;5.406;2023-06-04T00:24:35;102413.19;;;21.00;57.03
79540;BME280;68991;52.122;5.406;2023-06-04T00:27:01;102408.81;;;20.97;57.59
79540;BME280;68991;52.122;5.406;2023-06-04T00:29:28;102406.19;;;20.96;56.59
79540;BME280;68991;52.122;5.406;2023-06-04T00:31:54;102415.34;;;20.95;57.02
79540;BME280;68991;52.122;5.406;2023-06-04T00:34:21;102413.63;;;20.94;57.00
79540;BME280;68991;52.122;5.406;2023-06-04T00:36:47;102410.00;;;20.93;57.10
79540;BME280;68991;52.122;5.406;2023-06-04T00:39:14;102417.44;;;20.91;57.27
79540;BME280;68991;52.122;5.406;2023-06-04T00:41:40;102410.22;;;20.90;57.33
79540;BME280;68991;52.122;5.406;2023-06-04T00:44:07;102403.97;;;20.88;57.20
79540;BME280;68991;52.122;5.406;2023-06-04T00:46:35;102414.16;;;20.86;57.54
79540;BME280;68991;52.122;5.406;2023-06-04T00:49:03;102410.53;;;20.85;57.45
79540;BME280;68991;52.122;5.406;2023-06-04T00:51:31;102409.75;;;20.83;57.08
79540;BME280;68991;52.122;5.406;2023-06-04T00:53:59;102417.19;;;20.81;56.90
79540;BME280;68991;52.122;5.406;2023-06-04T00:56:25;102416.31;;;20.81;57.26
79540;BME280;68991;52.122;5.406;2023-06-04T00:58:51;102415.53;;;20.79;57.55
79540;BME280;68991;52.122;5.406;2023-06-04T01:03:54;102418.38;;;20.77;57.01
79540;BME280;68991;52.122;5.406;2023-06-04T01:08:51;102418.56;;;20.74;57.37
79540;BME280;68991;52.122;5.406;2023-06-04T01:11:37;102417.81;;;20.72;57.07
79540;BME280;68991;52.122;5.406;2023-06-04T01:14:04;102418.78;;;20.71;57.37
79540;BME280;68991;52.122;5.406;2023-06-04T01:16:38;102417.03;;;20.70;57.31
79540;BME280;68991;52.122;5.406;2023-06-04T01:19:16;102413.53;;;20.68;57.16
79540;BME280;68991;52.122;5.406;2023-06-04T01:21:52;102413.63;;;20.67;57.18
79540;BME280;68991;52.122;5.406;2023-06-04T01:24:21;102407.28;;;20.66;57.49
79540;BME280;68991;52.122;5.406;2023-06-04T01:26:51;102418.31;;;20.65;57.31
79540;BME280;68991;52.122;5.406;2023-06-04T01:29:22;102421.06;;;20.65;57.33
79540;BME280;68991;52.122;5.406;2023-06-04T01:31:51;102419.38;;;20.62;57.44
79540;BME280;68991;52.122;5.406;2023-06-04T01:34:18;102418.50;;;20.62;57.49
79540;BME280;68991;52.122;5.406;2023-06-04T01:36:45;102414.13;;;20.59;56.97
79540;BME280;68991;52.122;5.406;2023-06-04T01:39:11;102421.44;;;20.59;57.18
79540;BME280;68991;52.122;5.406;2023-06-04T01:41:38;102419.72;;;20.58;57.29
79540;BME280;68991;52.122;5.406;2023-06-04T01:44:04;102416.97;;;20.58;57.40
79540;BME280;68991;52.122;5.406;2023-06-04T01:46:30;102419.81;;;20.56;57.07
79540;BME280;68991;52.122;5.406;2023-06-04T01:48:57;102420.00;;;20.53;57.22
79540;BME280;68991;52.122;5.406;2023-06-04T01:51:23;102417.38;;;20.52;57.33
79540;BME280;68991;52.122;5.406;2023-06-04T01:53:50;102411.00;;;20.51;57.34
79540;BME280;68991;52.122;5.406;2023-06-04T01:56:16;102422.06;;;20.50;57.11
79540;BME280;68991;52.122;5.406;2023-06-04T01:58:43;102409.38;;;20.49;57.31
79540;BME280;68991;52.122;5.406;2023-06-04T02:01:10;102411.34;;;20.47;57.26
79540;BME280;68991;52.122;5.406;2023-06-04T02:03:36;102410.47;;;20.46;57.31
79540;BME280;68991;52.122;5.406;2023-06-04T02:06:04;102419.53;;;20.47;57.13
79540;BME280;68991;52.122;5.406;2023-06-04T02:08:34;102416.00;;;20.45;57.15
79540;BME280;68991;52.122;5.406;2023-06-04T02:11:01;102410.66;;;20.43;57.46
79540;BME280;68991;52.122;5.406;2023-06-04T02:13:28;102412.53;;;20.43;57.43
79540;BME280;68991;52.122;5.406;2023-06-04T02:15:54;102417.09;;;20.42;57.29
79540;BME280;68991;52.122;5.406;2023-06-04T02:18:20;102405.41;;;20.40;57.23
79540;BME280;68991;52.122;5.406;2023-06-04T02:20:49;102417.31;;;20.39;57.03
79540;BME280;68991;52.122;5.406;2023-06-04T02:23:17;102410.09;;;20.38;57.32
79540;BME280;68991;52.122;5.406;2023-06-04T02:25:45;102414.78;;;20.36;57.25
79540;BME280;68991;52.122;5.406;2023-06-04T02:28:12;102414.78;;;20.36;57.45
79540;BME280;68991;52.122;5.406;2023-06-04T02:30:39;102420.34;;;20.34;57.28
79540;BME280;68991;52.122;5.406;2023-06-04T02:33:05;102417.72;;;20.33;57.30
79540;BME280;68991;52.122;5.406;2023-06-04T02:35:32;102421.41;;;20.32;57.29
79540;BME280;68991;52.122;5.406;2023-06-04T02:37:59;102414.19;;;20.31;57.35
79540;BME280;68991;52.122;5.406;2023-06-04T02:40:26;102421.50;;;20.30;57.19
79540;BME280;68991;52.122;5.406;2023-06-04T02:42:54;102405.25;;;20.29;57.37
79540;BME280;68991;52.122;5.406;2023-06-04T02:45:22;102412.59;;;20.27;57.31
79540;BME280;68991;52.122;5.406;2023-06-04T02:47:48;102412.59;;;20.27;57.21
79540;BME280;68991;52.122;5.406;2023-06-04T02:50:15;102409.13;;;20.25;57.06
79540;BME280;68991;52.122;5.406;2023-06-04T02:52:42;102407.34;;;20.24;57.37
79540;BME280;68991;52.122;5.406;2023-06-04T02:55:10;102404.72;;;20.22;57.40
79540;BME280;68991;52.122;5.406;2023-06-04T02:57:40;102414.78;;;20.22;57.09
79540;BME280;68991;52.122;5.406;2023-06-04T03:00:08;102410.19;;;20.22;57.00
79540;BME280;68991;52.122;5.406;2023-06-04T03:02:42;102411.25;;;20.20;57.01
79540;BME280;68991;52.122;5.406;2023-06-04T03:05:11;102414.09;;;20.18;57.21
79540;BME280;68991;52.122;5.406;2023-06-04T03:07:37;102407.75;;;20.18;57.06
79540;BME280;68991;52.122;5.406;2023-06-04T03:10:04;102413.31;;;20.16;57.24
79540;BME280;68991;52.122;5.406;2023-06-04T03:12:31;102402.38;;;20.16;57.14
79540;BME280;68991;52.122;5.406;2023-06-04T03:14:58;102409.69;;;20.16;57.05
79540;BME280;68991;52.122;5.406;2023-06-04T03:17:25;102406.19;;;20.14;57.41
79540;BME280;68991;52.122;5.406;2023-06-04T03:19:52;102408.94;;;20.14;57.26
79540;BME280;68991;52.122;5.406;2023-06-04T03:22:19;102411.75;;;20.12;56.97
79540;BME280;68991;52.122;5.406;2023-06-04T03:24:45;102406.28;;;20.12;56.95
79540;BME280;68991;52.122;5.406;2023-06-04T03:27:12;102412.75;;;20.11;57.15
79540;BME280;68991;52.122;5.406;2023-06-04T03:29:38;102412.81;;;20.10;57.07
79540;BME280;68991;52.122;5.406;2023-06-04T03:32:05;102415.56;;;20.10;57.05
79540;BME280;68991;52.122;5.406;2023-06-04T03:34:32;102417.53;;;20.08;57.20
79540;BME280;68991;52.122;5.406;2023-06-04T03:37:01;102415.69;;;20.08;57.03
79540;BME280;68991;52.122;5.406;2023-06-04T03:39:27;102413.91;;;20.07;57.16
79540;BME280;68991;52.122;5.406;2023-06-04T03:41:54;102408.53;;;20.06;57.19
79540;BME280;68991;52.122;5.406;2023-06-04T03:44:21;102415.84;;;20.05;57.12
79540;BME280;68991;52.122;5.406;2023-06-04T03:46:48;102414.00;;;20.06;57.17
79540;BME280;68991;52.122;5.406;2023-06-04T03:49:14;102410.38;;;20.05;57.19
79540;BME280;68991;52.122;5.406;2023-06-04T03:51:44;102415.97;;;20.04;56.94
79540;BME280;68991;52.122;5.406;2023-06-04T03:54:10;102409.63;;;20.03;57.03
79540;BME280;68991;52.122;5.406;2023-06-04T03:56:37;102414.19;;;20.03;56.98
79540;BME280;68991;52.122;5.406;2023-06-04T03:59:04;102418.78;;;20.02;57.03
79540;BME280;68991;52.122;5.406;2023-06-04T04:01:31;102411.59;;;20.01;56.93
79540;BME280;68991;52.122;5.406;2023-06-04T04:03:57;102415.28;;;20.00;56.89
79540;BME280;68991;52.122;5.406;2023-06-04T04:06:24;102410.69;;;20.01;56.97
79540;BME280;68991;52.122;5.406;2023-06-04T04:08:50;102407.19;;;19.99;57.00
79540;BME280;68991;52.122;5.406;2023-06-04T04:11:17;102409.03;;;19.98;56.83
79540;BME280;68991;52.122;5.406;2023-06-04T04:13:46;102403.56;;;19.98;56.82
79540;BME280;68991;52.122;5.406;2023-06-04T04:16:13;102403.56;;;19.98;56.74
79540;BME280;68991;52.122;5.406;2023-06-04T04:18:41;102411.75;;;19.98;56.81
79540;BME280;68991;52.122;5.406;2023-06-04T04:21:10;102419.09;;;19.98;56.88
79540;BME280;68991;52.122;5.406;2023-06-04T04:23:38;102420.06;;;19.97;56.74
79540;BME280;68991;52.122;5.406;2023-06-04T04:26:07;102411.97;;;19.95;56.94
79540;BME280;68991;52.122;5.406;2023-06-04T04:28:34;102413.72;;;19.96;56.67
79540;BME280;68991;52.122;5.406;2023-06-04T04:31:01;102421.03;;;19.96;56.66
79540;BME280;68991;52.122;5.406;2023-06-04T04:33:29;102420.16;;;19.95;56.89
79540;BME280;68991;52.122;5.406;2023-06-04T04:35:59;102412.84;;;19.96;56.57
79540;BME280;68991;52.122;5.406;2023-06-04T04:38:26;102415.56;;;19.96;56.65
79540;BME280;68991;52.122;5.406;2023-06-04T04:40:55;102418.31;;;19.96;56.86
79540;BME280;68991;52.122;5.406;2023-06-04T04:43:30;102411.97;;;19.95;56.70
79540;BME280;68991;52.122;5.406;2023-06-04T04:45:58;102413.81;;;19.95;56.55
79540;BME280;68991;52.122;5.406;2023-06-04T04:48:24;102419.25;;;19.95;56.53
79540;BME280;68991;52.122;5.406;2023-06-04T04:50:52;102423.75;;;19.96;56.75
79540;BME280;68991;52.122;5.406;2023-06-04T04:53:19;102422.00;;;19.95;56.89
79540;BME280;68991;52.122;5.406;2023-06-04T04:55:45;102422.00;;;19.95;56.86
79540;BME280;68991;52.122;5.406;2023-06-04T04:58:12;102412.97;;;19.94;56.70
79540;BME280;68991;52.122;5.406;2023-06-04T05:00:39;102419.25;;;19.95;56.83
79540;BME280;68991;52.122;5.406;2023-06-04T05:03:05;102411.97;;;19.95;56.76
79540;BME280;68991;52.122;5.406;2023-06-04T05:05:33;102418.31;;;19.96;56.59
79540;BME280;68991;52.122;5.406;2023-06-04T05:07:59;102419.25;;;19.95;56.77
79540;BME280;68991;52.122;5.406;2023-06-04T05:10:26;102421.03;;;19.96;56.62
79540;BME280;68991;52.122;5.406;2023-06-04T05:12:53;102432.81;;;19.96;56.70
79540;BME280;68991;52.122;5.406;2023-06-04T05:15:20;102430.97;;;19.97;56.87
79540;BME280;68991;52.122;5.406;2023-06-04T05:17:47;102426.41;;;19.97;56.72
79540;BME280;68991;52.122;5.406;2023-06-04T05:20:14;102432.75;;;19.98;56.62
79540;BME280;68991;52.122;5.406;2023-06-04T05:22:42;102432.75;;;19.98;56.71
79540;BME280;68991;52.122;5.406;2023-06-04T05:25:09;102419.09;;;19.98;56.57
79540;BME280;68991;52.122;5.406;2023-06-04T05:27:36;102417.22;;;19.98;56.55
79540;BME280;68991;52.122;5.406;2023-06-04T05:30:03;102425.31;;;20.00;56.52
79540;BME280;68991;52.122;5.406;2023-06-04T05:32:30;102417.13;;;20.00;56.62
79540;BME280;68991;52.122;5.406;2023-06-04T05:34:59;102418.91;;;20.01;56.52
79540;BME280;68991;52.122;5.406;2023-06-04T05:37:26;102424.34;;;20.01;56.22
79540;BME280;68991;52.122;5.406;2023-06-04T05:39:53;102426.97;;;20.02;56.70
79540;BME280;68991;52.122;5.406;2023-06-04T05:42:19;102428.81;;;20.02;56.45
79540;BME280;68991;52.122;5.406;2023-06-04T05:44:46;102435.16;;;20.02;56.29
79540;BME280;68991;52.122;5.406;2023-06-04T05:47:12;102431.47;;;20.03;56.35
79540;BME280;68991;52.122;5.406;2023-06-04T05:49:39;102426.00;;;20.03;56.05
79540;BME280;68991;52.122;5.406;2023-06-04T05:52:05;102426.88;;;20.04;56.37
79540;BME280;68991;52.122;5.406;2023-06-04T05:54:32;102428.66;;;20.05;56.38
79540;BME280;68991;52.122;5.406;2023-06-04T05:56:59;102429.50;;;20.05;56.25
79540;BME280;68991;52.122;5.406;2023-06-04T05:59:25;102424.84;;;20.07;56.79
79540;BME280;68991;52.122;5.406;2023-06-04T06:01:52;102428.25;;;20.11;56.47
79540;BME280;68991;52.122;5.406;2023-06-04T06:04:18;102433.59;;;20.12;56.34
79540;BME280;68991;52.122;5.406;2023-06-04T06:06:45;102432.53;;;20.15;56.49
79540;BME280;68991;52.122;5.406;2023-06-04T06:09:16;102430.56;;;20.17;56.31
79540;BME280;68991;52.122;5.406;2023-06-04T06:11:42;102430.56;;;20.17;56.31
79540;BME280;68991;52.122;5.406;2023-06-04T06:14:09;102433.09;;;20.20;56.42
79540;BME280;68991;52.122;5.406;2023-06-04T06:16:35;102426.66;;;20.21;56.58
79540;BME280;68991;52.122;5.406;2023-06-04T06:19:02;102430.16;;;20.23;56.58
79540;BME280;68991;52.122;5.406;2023-06-04T06:21:29;102436.31;;;20.26;56.39
79540;BME280;68991;52.122;5.406;2023-06-04T06:23:55;102437.13;;;20.28;56.51
79540;BME280;68991;52.122;5.406;2023-06-04T06:26:22;102438.91;;;20.29;56.58
79540;BME280;68991;52.122;5.406;2023-06-04T06:28:50;102437.91;;;20.30;56.69
79540;BME280;68991;52.122;5.406;2023-06-04T06:31:17;102441.44;;;20.32;56.70
79540;BME280;68991;52.122;5.406;2023-06-04T06:33:43;102434.88;;;20.35;56.37
79540;BME280;68991;52.122;5.406;2023-06-04T06:36:10;102427.44;;;20.37;56.24
79540;BME280;68991;52.122;5.406;2023-06-04T06:38:38;102435.47;;;20.40;56.15
79540;BME280;68991;52.122;5.406;2023-06-04T06:41:05;102437.19;;;20.41;56.14
79540;BME280;68991;52.122;5.406;2023-06-04T06:43:32;102436.16;;;20.44;56.28
79540;BME280;68991;52.122;5.406;2023-06-04T06:45:59;102440.50;;;20.46;56.74
79540;BME280;68991;52.122;5.406;2023-06-04T06:48:25;102436.81;;;20.47;56.24
79540;BME280;68991;52.122;5.406;2023-06-04T06:50:53;102443.13;;;20.48;56.12
79540;BME280;68991;52.122;5.406;2023-06-04T06:53:19;102435.81;;;20.48;56.26
79540;BME280;68991;52.122;5.406;2023-06-04T06:55:46;102443.03;;;20.49;56.67
79540;BME280;68991;52.122;5.406;2023-06-04T06:58:12;102449.38;;;20.50;56.26
79540;BME280;68991;52.122;5.406;2023-06-04T07:00:39;102446.44;;;20.53;56.28
79540;BME280;68991;52.122;5.406;2023-06-04T07:03:06;102442.75;;;20.54;56.04
79540;BME280;68991;52.122;5.406;2023-06-04T07:05:34;102448.97;;;20.56;55.91
79540;BME280;68991;52.122;5.406;2023-06-04T07:08:01;102453.34;;;20.58;55.84
79540;BME280;68991;52.122;5.406;2023-06-04T07:10:29;102458.06;;;20.56;54.90
79540;BME280;68991;52.122;5.406;2023-06-04T07:12:56;102453.47;;;20.57;55.11
79540;BME280;68991;52.122;5.406;2023-06-04T07:15:22;102458.94;;;20.57;55.30
79540;BME280;68991;52.122;5.406;2023-06-04T07:17:49;102453.34;;;20.58;55.58
79540;BME280;68991;52.122;5.406;2023-06-04T07:20:16;102456.88;;;20.60;55.53
79540;BME280;68991;52.122;5.406;2023-06-04T07:22:42;102464.97;;;20.62;55.66
79540;BME280;68991;52.122;5.406;2023-06-04T07:25:09;102466.72;;;20.63;55.46
79540;BME280;68991;52.122;5.406;2023-06-04T07:27:35;102461.16;;;20.64;55.32
79540;BME280;68991;52.122;5.406;2023-06-04T07:30:02;102470.25;;;20.65;55.33
79540;BME280;68991;52.122;5.406;2023-06-04T07:32:28;102464.78;;;20.65;55.35
79540;BME280;68991;52.122;5.406;2023-06-04T07:34:55;102459.19;;;20.66;55.87
79540;BME280;68991;52.122;5.406;2023-06-04T07:37:21;102460.97;;;20.67;55.38
79540;BME280;68991;52.122;5.406;2023-06-04T07:39:48;102462.72;;;20.68;55.35
79540;BME280;68991;52.122;5.406;2023-06-04T07:42:14;102452.56;;;20.70;55.16
79540;BME280;68991;52.122;5.406;2023-06-04T07:44:41;102464.28;;;20.72;55.22
79540;BME280;68991;52.122;5.406;2023-06-04T07:47:07;102462.41;;;20.73;55.59
79540;BME280;68991;52.122;5.406;2023-06-04T07:49:34;102465.91;;;20.75;55.59
79540;BME280;68991;52.122;5.406;2023-06-04T07:52:09;102471.19;;;20.78;55.45
79540;BME280;68991;52.122;5.406;2023-06-04T07:54:36;102462.91;;;20.79;54.99
79540;BME280;68991;52.122;5.406;2023-06-04T07:57:02;102464.53;;;20.82;55.41
79540;BME280;68991;52.122;5.406;2023-06-04T07:59:29;102457.22;;;20.82;55.71
79540;BME280;68991;52.122;5.406;2023-06-04T08:01:55;102458.78;;;20.87;55.57
79540;BME280;68991;52.122;5.406;2023-06-04T08:04:22;102460.50;;;20.88;54.71
79540;BME280;68991;52.122;5.406;2023-06-04T08:06:48;102461.28;;;20.90;55.25
79540;BME280;68991;52.122;5.406;2023-06-04T08:09:16;102463.03;;;20.91;55.61
79540;BME280;68991;52.122;5.406;2023-06-04T08:11:42;102462.06;;;20.92;55.69
79540;BME280;68991;52.122;5.406;2023-06-04T08:14:10;102461.97;;;20.93;54.92
79540;BME280;68991;52.122;5.406;2023-06-04T08:16:37;102455.50;;;20.94;55.35
79540;BME280;68991;52.122;5.406;2023-06-04T08:19:04;102462.63;;;20.97;55.20
79540;BME280;68991;52.122;5.406;2023-06-04T08:21:30;102458.88;;;20.98;55.04
79540;BME280;68991;52.122;5.406;2023-06-04T08:23:57;102462.41;;;21.00;55.08
79540;BME280;68991;52.122;5.406;2023-06-04T08:26:25;102470.63;;;21.00;55.48
79540;BME280;68991;52.122;5.406;2023-06-04T08:28:53;102464.28;;;20.99;55.32
79540;BME280;68991;52.122;5.406;2023-06-04T08:31:19;102465.25;;;20.98;55.09
79540;BME280;68991;52.122;5.406;2023-06-04T08:33:47;102468.88;;;20.99;55.51
79540;BME280;68991;52.122;5.406;2023-06-04T08:36:14;102469.81;;;20.98;55.60
79540;BME280;68991;52.122;5.406;2023-06-04T08:38:42;102467.09;;;20.98;55.07
79540;BME280;68991;52.122;5.406;2023-06-04T08:41:24;102468.88;;;20.99;55.34
79540;BME280;68991;52.122;5.406;2023-06-04T08:43:55;102466.13;;;20.99;55.42
79540;BME280;68991;52.122;5.406;2023-06-04T08:46:27;102460.66;;;20.99;55.09
79540;BME280;68991;52.122;5.406;2023-06-04T08:48:56;102468.88;;;20.99;55.38
79540;BME280;68991;52.122;5.406;2023-06-04T08:51:26;102465.16;;;21.00;54.85
79540;BME280;68991;52.122;5.406;2023-06-04T08:53:54;102462.31;;;21.01;54.89
79540;BME280;68991;52.122;5.406;2023-06-04T08:56:21;102466.78;;;21.02;55.23
79540;BME280;68991;52.122;5.406;2023-06-04T08:58:48;102477.66;;;21.04;55.12
79540;BME280;68991;52.122;5.406;2023-06-04T09:01:17;102475.66;;;21.06;54.54
79540;BME280;68991;52.122;5.406;2023-06-04T09:03:45;102474.69;;;21.07;54.96
79540;BME280;68991;52.122;5.406;2023-06-04T09:06:12;102472.72;;;21.09;54.69
79540;BME280;68991;52.122;5.406;2023-06-04T09:08:39;102476.28;;;21.11;54.55
79540;BME280;68991;52.122;5.406;2023-06-04T09:11:18;102471.69;;;21.11;54.27
79540;BME280;68991;52.122;5.406;2023-06-04T09:13:46;102476.06;;;21.14;54.30
79540;BME280;68991;52.122;5.406;2023-06-04T09:16:13;102472.38;;;21.15;54.62
79540;BME280;68991;52.122;5.406;2023-06-04T09:18:40;102465.88;;;21.16;54.56
79540;BME280;68991;52.122;5.406;2023-06-04T09:21:08;102469.28;;;21.19;54.37
79540;BME280;68991;52.122;5.406;2023-06-04T09:23:48;102468.22;;;21.22;54.24
79540;BME280;68991;52.122;5.406;2023-06-04T09:26:14;102471.63;;;21.25;54.58
79540;BME280;68991;52.122;5.406;2023-06-04T09:28:45;102464.19;;;21.27;54.43
79540;BME280;68991;52.122;5.406;2023-06-04T09:31:16;102463.97;;;21.30;54.34
79540;BME280;68991;52.122;5.406;2023-06-04T09:33:45;102464.75;;;21.32;54.51
79540;BME280;68991;52.122;5.406;2023-06-04T09:36:12;102463.66;;;21.35;54.32
79540;BME280;68991;52.122;5.406;2023-06-04T09:38:39;102468.91;;;21.38;54.08
79540;BME280;68991;52.122;5.406;2023-06-04T09:41:16;102468.81;;;21.40;54.00
79540;BME280;68991;52.122;5.406;2023-06-04T09:43:43;102464.97;;;21.42;53.98
79540;BME280;68991;52.122;5.406;2023-06-04T09:46:14;102463.88;;;21.45;53.76
79540;BME280;68991;52.122;5.406;2023-06-04T09:48:42;102467.19;;;21.50;53.98
79540;BME280;68991;52.122;5.406;2023-06-04T09:51:13;102462.59;;;21.50;53.07
79540;BME280;68991;52.122;5.406;2023-06-04T09:53:41;102469.50;;;21.56;53.52
79540;BME280;68991;52.122;5.406;2023-06-04T09:56:07;102463.03;;;21.57;53.83
79540;BME280;68991;52.122;5.406;2023-06-04T09:58:35;102462.81;;;21.60;53.37
79540;BME280;68991;52.122;5.406;2023-06-04T10:01:04;102466.31;;;21.62;53.24
79540;BME280;68991;52.122;5.406;2023-06-04T10:03:36;102465.25;;;21.64;53.28
79540;BME280;68991;52.122;5.406;2023-06-04T10:06:04;102459.56;;;21.67;53.01
79540;BME280;68991;52.122;5.406;2023-06-04T10:08:31;102456.47;;;21.72;53.29
79540;BME280;68991;52.122;5.406;2023-06-04T10:10:59;102457.25;;;21.74;53.27
79540;BME280;68991;52.122;5.406;2023-06-04T10:13:30;102454.28;;;21.77;52.72
79540;BME280;68991;52.122;5.406;2023-06-04T10:15:58;102458.66;;;21.79;53.11
79540;BME280;68991;52.122;5.406;2023-06-04T10:18:27;102465.66;;;21.83;53.03
79540;BME280;68991;52.122;5.406;2023-06-04T10:20:55;102459.97;;;21.87;52.76
79540;BME280;68991;52.122;5.406;2023-06-04T10:23:23;102462.50;;;21.90;52.54
79540;BME280;68991;52.122;5.406;2023-06-04T10:25:51;102463.19;;;21.93;52.97
79540;BME280;68991;52.122;5.406;2023-06-04T10:28:22;102463.09;;;21.95;52.68
79540;BME280;68991;52.122;5.406;2023-06-04T10:30:49;102468.34;;;21.98;52.53
79540;BME280;68991;52.122;5.406;2023-06-04T10:33:20;102456.19;;;22.02;52.51
79540;BME280;68991;52.122;5.406;2023-06-04T10:35:53;102457.72;;;22.06;52.31
79540;BME280;68991;52.122;5.406;2023-06-04T10:38:21;102454.75;;;22.09;51.90
79540;BME280;68991;52.122;5.406;2023-06-04T10:40:48;102443.56;;;22.12;52.35
79540;BME280;68991;52.122;5.406;2023-06-04T10:43:15;102445.97;;;22.16;52.54
79540;BME280;68991;52.122;5.406;2023-06-04T10:45:42;102460.31;;;22.20;52.00
79540;BME280;68991;52.122;5.406;2023-06-04T10:48:12;102446.41;;;22.23;52.19
79540;BME280;68991;52.122;5.406;2023-06-04T10:50:52;102446.16;;;22.26;52.10
79540;BME280;68991;52.122;5.406;2023-06-04T10:53:19;102446.81;;;22.29;52.20
79540;BME280;68991;52.122;5.406;2023-06-04T10:55:47;102450.22;;;22.33;51.63
79540;BME280;68991;52.122;5.406;2023-06-04T10:58:14;102453.50;;;22.38;51.72
79540;BME280;68991;52.122;5.406;2023-06-04T11:00:43;102450.53;;;22.41;51.37
79540;BME280;68991;52.122;5.406;2023-06-04T11:03:12;102450.94;;;22.48;51.86
79540;BME280;68991;52.122;5.406;2023-06-04T11:05:41;102448.84;;;22.51;51.33
79540;BME280;68991;52.122;5.406;2023-06-04T11:08:09;102450.38;;;22.55;51.33
79540;BME280;68991;52.122;5.406;2023-06-04T11:10:43;102456.19;;;22.63;51.04
79540;BME280;68991;52.122;5.406;2023-06-04T11:13:10;102448.03;;;22.74;50.82
79540;BME280;68991;52.122;5.406;2023-06-04T11:18:12;102447.44;;;22.82;50.63
79540;BME280;68991;52.122;5.406;2023-06-04T11:20:39;102449.31;;;22.81;50.73
79540;BME280;68991;52.122;5.406;2023-06-04T11:23:06;102444.59;;;22.84;50.55
79540;BME280;68991;52.122;5.406;2023-06-04T11:25:32;102443.50;;;22.86;50.56
79540;BME280;68991;52.122;5.406;2023-06-04T11:28:00;102444.13;;;22.90;50.27
79540;BME280;68991;52.122;5.406;2023-06-04T11:30:27;102440.41;;;22.91;50.38
79540;BME280;68991;52.122;5.406;2023-06-04T11:33:02;102443.78;;;22.94;50.46
79540;BME280;68991;52.122;5.406;2023-06-04T11:35:29;102440.72;;;22.99;50.14
79540;BME280;68991;52.122;5.406;2023-06-04T11:37:57;102437.72;;;23.02;50.06
79540;BME280;68991;52.122;5.406;2023-06-04T11:40:25;102432.88;;;23.05;49.98
79540;BME280;68991;52.122;5.406;2023-06-04T11:42:53;102436.25;;;23.09;50.01
79540;BME280;68991;52.122;5.406;2023-06-04T11:45:21;102429.41;;;23.14;49.83
79540;BME280;68991;52.122;5.406;2023-06-04T11:47:51;102432.78;;;23.18;49.79
79540;BME280;68991;52.122;5.406;2023-06-04T11:50:18;102422.34;;;23.23;49.42
79540;BME280;68991;52.122;5.406;2023-06-04T11:52:45;102418.88;;;23.32;49.63
79540;BME280;68991;52.122;5.406;2023-06-04T11:55:12;102413.72;;;23.51;48.98
79540;BME280;68991;52.122;5.406;2023-06-04T11:57:39;102416.16;;;24.00;47.95
79540;BME280;68991;52.122;5.406;2023-06-04T12:00:07;102404.97;;;24.68;46.38
79540;BME280;68991;52.122;5.406;2023-06-04T12:02:37;102409.50;;;26.05;43.45
79540;BME280;68991;52.122;5.406;2023-06-04T12:05:14;102411.25;;;27.24;41.20
79540;BME280;68991;52.122;5.406;2023-06-04T12:07:41;102390.75;;;28.02;38.75
79540;BME280;68991;52.122;5.406;2023-06-04T12:10:08;102390.69;;;28.48;37.88
79540;BME280;68991;52.122;5.406;2023-06-04T12:12:35;102396.50;;;28.73;36.91
79540;BME280;68991;52.122;5.406;2023-06-04T12:15:01;102396.50;;;28.73;37.09
79540;BME280;68991;52.122;5.406;2023-06-04T12:17:28;102395.84;;;28.34;37.40
79540;BME280;68991;52.122;5.406;2023-06-04T12:19:54;102402.66;;;27.08;39.50
79540;BME280;68991;52.122;5.406;2023-06-04T12:22:22;102400.22;;;26.06;41.89
79540;BME280;68991;52.122;5.406;2023-06-04T12:24:50;102396.50;;;25.45;43.21
79540;BME280;68991;52.122;5.406;2023-06-04T12:27:21;102399.59;;;25.10;44.11
79540;BME280;68991;52.122;5.406;2023-06-04T12:30:06;102399.66;;;24.88;44.45
79540;BME280;68991;52.122;5.406;2023-06-04T12:32:36;102410.94;;;24.73;44.89
79540;BME280;68991;52.122;5.406;2023-06-04T12:35:03;102403.47;;;24.64;45.51
79540;BME280;68991;52.122;5.406;2023-06-04T12:37:29;102389.38;;;24.58;45.30
79540;BME280;68991;52.122;5.406;2023-06-04T12:39:56;102394.53;;;24.51;46.18
79540;BME280;68991;52.122;5.406;2023-06-04T12:42:23;102402.78;;;24.51;45.71
79540;BME280;68991;52.122;5.406;2023-06-04T12:44:49;102403.16;;;24.47;46.16
79540;BME280;68991;52.122;5.406;2023-06-04T12:47:16;102396.78;;;24.46;46.44
79540;BME280;68991;52.122;5.406;2023-06-04T12:49:44;102400.66;;;24.44;46.00
79540;BME280;68991;52.122;5.406;2023-06-04T12:52:10;102404.41;;;24.43;46.16
79540;BME280;68991;52.122;5.406;2023-06-04T12:54:37;102395.41;;;24.41;46.29
79540;BME280;68991;52.122;5.406;2023-06-04T12:57:03;102390.75;;;24.41;46.48
79540;BME280;68991;52.122;5.406;2023-06-04T12:59:30;102392.53;;;24.42;46.38